SKVV/VVC METAR and TAF weather

Enter ICAO airport designator
Station Type Date Time Source
SKVV METAR 2019/06/27 04:00 UTC NOAA

SKVV 270400Z 22004KT 9999 FEW020 23/22 A2997


Station Type Date Time Source
SKVV Decoded METAR 2019/06/27 04:00 UTC NOAA

Villavicencio / Vanguardia, Colombia (SKVV) 04-10N 073-37W 431M
Jun 27, 2019 - 12:00 AM EDT / 2019.06.27 0400 UTC
Wind: from the SW (220 degrees) at 5 MPH (4 KT):0
Visibility: greater than 7 mile(s):0
Sky conditions: mostly clear
Temperature: 73 F (23 C)
Dew Point: 71 F (22 C)
Relative Humidity: 94%
Pressure (altimeter): 29.97 in. Hg (1014 hPa)
ob: SKVV 270400Z 22004KT 9999 FEW020 23/22 A2997
cycle: 4

Station Type Date Time Source
SKVV TAF UTC NOAA

Error!

Example: see airport list